Garze, China
Current Conditions -  °F | °C
As of 2:00 PM on Sunday 21 Dec 2014 (Local Time) from ZUUU Reporting Station
Clear Clear  
Wind Chill: 54°   Ceiling: Unl
Heat Index: 54°   Visibility: 6mi
Dew Point: 12°   Wind: 4mph
Humidity: 19%   Direction: NA
Pressure: 30.48"   Gusts: NA
Location:  31.62°N, 100°E
Report Text: ZUUU 210600Z VRB02MPS CAVOK 12/M11 Q1032 NOSIG
Loading
Personal Weather Stations






























Interactive Weather Map New forecast layout! Learn more

10-Day Weather Forecast

Advertisements
Track Severe Weather on mobile